Clemson, SC (29631)

5:17 PM EST on February 08, 2016 (GMT -0500)
CU Ent Dept | | Change Station
CLOSE
Current Station
Personal Weather Station
Location: Clemson, SC
Elevation: 842 ft
Nearby Weather Stations

Elev 842 ft 34.68 °N, 82.83 °W | Updated 55 seconds ago

Overcast
Overcast
48.0 °F
Feels Like 44 °F
N
10.0
Wind Variable Wind from West
Gusts 17.0 mph

Today
High -- | Low -- °F
--% Chance of Precip.
Yesterday
High -- | Low -- °F
Precip. -- in
Pressure 29.69 in
Visibility 10.0 miles
Clouds Few 5500 ft
Mostly Cloudy 7000 ft
Overcast 11000 ft
Windchill 44 °F
Dew Point 29 °F
Humidity 47%
Rainfall 0.00 in
Snow Depth Not available.
7:24 AM 6:07 PM
New Moon, 0% visible
METAR KCEU 082154Z AUTO 27011G23KT 10SM FEW055 BKN070 OVC110 11/M05 A2969 RMK AO2 SLP053 T01061050
Pressure 29.69 in
Visibility 10.0 miles
Clouds Few 5500 ft
Mostly Cloudy 7000 ft
Overcast 11000 ft
Windchill 44 °F
Dew Point 29 °F
Humidity 47%
Rainfall 0.00 in
Snow Depth Not available.
7:24 AM 6:07 PM
New Moon, 0% visible
METAR KCEU 082154Z AUTO 27011G23KT 10SM FEW055 BKN070 OVC110 11/M05 A2969 RMK AO2 SLP053 T01061050

10-Day Weather Forecast

Almanac

Astronomy

Feb. 08, 2016 Rise Set
Actual Time
Civil Twilight
Nautical Twilight
Astronomical Twilight
Moon
Length of Visible Light
Length of Day
Tomorrow will be .
, % of the Moon is Illuminated

Today's Extremes

State Highs State Lows

Community

WunderPhotos

Upload Photos

1,891,516 photos uploaded!

WunderBlog® & News

Nearby

Air Quality

  Air Quality AQ Index Pollutant
Not available.

Snow Depth

Station Depth Elevation

Earthquake Activity

City Distance Mag. Time & Date
Minimum magnitude displayed is 2.5.

Coastal Water Temperatures

Place Temperature

Stations

Nearby Weather Stations

Station Location Temp. Windchill Dew Point Humidity Wind Precip. Elev Updated Type
                   

Watches & Warnings

There are currently no watches in effect.